Terminal Aerodrome Forecast
Issued by NWS

Home | Current Version | Previous Version | Text Only | Print | Product List | Glossary On
Versions: 1 2 3 4 5 6 7 8 9 10 11 12 13 14
000
FTUS42 KGSP 031736
TAFAND
TAF
KAND 031736Z 0318/0418 15004KT P6SM FEW060
     FM040900 00000KT 4SM BR FEW250
     FM041300 26005KT P6SM FEW050 SCT250=

USA.gov is the U.S. government's official web portal to all federal, state and local government web resources and services.